Latitude: N 50° 09' 49" Longitude: W 05° 11' 53" Elevation: 168m ASL

There are 4 visitors online

Adverts
Latest METAR Data

Below are the latest METARs ("Meteorological Services to Airmen Reports"), for RNAS Culdrose and Newquay Airport.

EGDR - RNAS Culdrose
Distance from station: SW 6mi, 9km
Updated: Tue, 24-Apr-2018 2:50pm BST
Fog
Fog
 Wind from SW
Wind: SW 18 mph , 30 km/h
Temperature: 54°F , 12°C
Dew Point: 54°F , 12°C
Humidity: 100%
Barometer: 29.91 inHg , 1013 hPa
Summary: Fog
Visibility: 0 mile , 0 km
2018/04/24 13:50 EGDR 241350Z 22016KT 0300 FG VV/// 12/12 Q1013 RED
EGHQ - Newquay Airport
Distance from station: NE 21mi, 34km
Updated: Tue, 24-Apr-2018 3:20pm BST
Mostly Cloudy
Mostly Cloudy
 Wind from SW
Wind: SW 20 mph , 31 km/h, Gust: 32 mph , 52 km/h
Temperature: 55°F , 13°C
Dew Point: 52°F , 11°C
Humidity: 88%
Barometer: 29.91 inHg , 1013 hPa
Clouds: Mostly Cloudy
Visibility: 6 miles , 9 km
Cloud details: Mostly Cloudy 1100 ft
2018/04/24 14:20 EGHQ 241420Z 23017G28KT 9000 BKN011 13/11 Q1013
 
EGTE - Exeter Airport
Distance from station: ENE 88mi, 141km
Updated: Tue, 24-Apr-2018 3:20pm BST
Mostly Cloudy
Mostly Cloudy
 Wind from SSW
Wind: SSW 15 mph , 24 km/h
Temperature: 57°F , 14°C
Dew Point: 52°F , 11°C
Humidity: 82%
Barometer: 29.88 inHg , 1012 hPa
Clouds: Mostly Cloudy
Visibility: 6 miles , 10 km
Cloud details: Few Clouds 800 ft
Partly Cloudy 1300 ft
Mostly Cloudy 1800 ft
2018/04/24 14:20 EGTE 241420Z 21013KT 9999 FEW008 SCT013 BKN018 14/11 Q1012
EGHE - St Marys, IOS
Distance from station: W 51mi, 82km
Updated: Tue, 24-Apr-2018 3:20pm BST
Mostly Cloudy
Mostly Cloudy
 Wind from SW
Wind: SW 24 mph , 39 km/h, Gust: 36 mph , 57 km/h
Temperature: 55°F , 13°C
Dew Point: 52°F , 11°C
Humidity: 88%
Barometer: 29.91 inHg , 1013 hPa
Clouds: Mostly Cloudy
Visibility: 5 miles , 8 km
Cloud details: Few Clouds 100 ft
Mostly Cloudy 300 ft
Mostly Cloudy 700 ft
2018/04/24 14:20 EGHE 241420Z 23021G31KT 8000 FEW001 BKN003 BKN007 13/11 Q1013

Metar display script from Saratoga-Weather.org

UK - WEATHER STATION TOPSITES - UK World Weather Websites

This is a private weather station, never base important decisions or events on data from this weather station. Although every effort has been made to make the data as accurate as possible it does not meet MetOffice standards. It is proved as a guide of local weather conditions. We accept no liability for any loss which may arise from use of the data.

Copyright © Carnkie Weather 2009 - 2018.